Time;durP1;ratioP1;P1;durP2;ratioP2;P2;SDS_P1;SDS_P2;PMS_P1;PMS_P2;Temp;Humidity;BMP_temperature;BMP_pressure;BME280_temperature;BME280_humidity;BME280_pressure;Samples;Min_cycle;Max_cycle;Signal;HPM_P1;HPM_P2
2022/12/24 00:01:52;;;;;;;8.10;5.43;;;;;;;2.55;75.43;94684.13;5039385;28;20478;-68
2022/12/24 00:04:18;;;;;;;8.98;5.18;;;;;;;2.61;74.12;94694.03;5042125;28;20110;-68
2022/12/24 00:06:43;;;;;;;6.50;4.40;;;;;;;2.62;74.19;94688.03;5035563;28;20207;-68
2022/12/24 00:09:09;;;;;;;8.65;5.05;;;;;;;2.59;74.71;94672.78;5040928;28;20041;-69
2022/12/24 00:11:34;;;;;;;6.82;4.45;;;;;;;2.62;75.14;94690.59;5032583;28;20025;-68
2022/12/24 00:13:59;;;;;;;7.60;4.93;;;;;;;2.52;75.51;94676.59;5037303;28;20041;-68
2022/12/24 00:16:25;;;;;;;10.05;5.82;;;;;;;2.54;75.37;94681.66;5045791;28;20036;-68
2022/12/24 00:18:51;;;;;;;7.18;4.85;;;;;;;2.62;74.79;94677.75;5044694;28;20052;-68
2022/12/24 00:21:16;;;;;;;6.85;5.15;;;;;;;2.65;74.67;94682.72;5027035;28;20037;-68
2022/12/24 00:23:41;;;;;;;8.52;5.85;;;;;;;2.64;74.58;94677.66;5041305;28;20025;-69
2022/12/24 00:26:07;;;;;;;8.45;5.60;;;;;;;2.63;74.50;94681.97;5040132;28;20033;-68
2022/12/24 00:28:32;;;;;;;9.27;5.70;;;;;;;2.50;74.94;94680.97;5027310;28;20075;-68
2022/12/24 00:30:58;;;;;;;7.03;4.63;;;;;;;2.60;75.26;94682.13;5043512;28;20041;-68
2022/12/24 00:33:23;;;;;;;8.23;5.03;;;;;;;2.49;75.39;94681.88;5046242;28;20029;-69
2022/12/24 00:35:49;;;;;;;7.03;4.32;;;;;;;2.52;75.08;94674.03;5045937;28;20045;-69
2022/12/24 00:38:15;;;;;;;7.88;4.50;;;;;;;2.65;74.67;94682.72;5024790;28;20040;-69
2022/12/24 00:40:40;;;;;;;8.48;5.18;;;;;;;2.55;74.20;94662.78;5045167;28;20029;-68
2022/12/24 00:43:06;;;;;;;6.93;4.57;;;;;;;2.57;74.34;94679.75;5043005;28;20056;-68
2022/12/24 00:45:31;;;;;;;7.07;4.50;;;;;;;2.62;74.29;94675.19;5042712;28;20040;-68
2022/12/24 00:47:56;;;;;;;8.45;5.15;;;;;;;2.66;73.87;94676.66;5040535;28;20025;-68
2022/12/24 00:50:22;;;;;;;6.50;4.63;;;;;;;2.60;73.97;94671.88;5037916;28;20041;-68
2022/12/24 00:52:47;;;;;;;7.25;5.18;;;;;;;2.69;73.44;94684.19;5011628;28;20098;-68
2022/12/24 00:55:13;;;;;;;7.72;4.88;;;;;;;2.74;72.95;94683.13;5043612;28;20052;-68
2022/12/24 00:57:38;;;;;;;8.30;5.57;;;;;;;2.62;73.67;94682.06;5040578;28;20515;-68
2022/12/24 01:00:04;;;;;;;6.10;4.47;;;;;;;2.64;73.60;94680.22;5042646;28;20025;-69
2022/12/24 01:02:30;;;;;;;7.60;4.88;;;;;;;2.52;74.18;94678.34;5044281;28;20120;-68
2022/12/24 01:05:10;;;;;;;6.43;4.78;;;;;;;2.60;73.75;94687.28;5044100;28;20033;-68
2022/12/24 01:07:45;;;;;;;7.15;4.90;;;;;;;2.56;73.73;94678.06;5045325;28;20107;-68
2022/12/24 01:10:15;;;;;;;6.22;3.92;;;;;;;2.56;72.86;94679.81;5010560;28;20029;-68
2022/12/24 01:12:40;;;;;;;7.32;4.65;;;;;;;2.54;72.64;94676.53;5024554;28;20028;-68
2022/12/24 01:15:06;;;;;;;7.25;4.90;;;;;;;2.61;72.02;94680.41;5042406;28;20037;-68
2022/12/24 01:17:32;;;;;;;7.95;5.28;;;;;;;2.50;72.03;94675.84;5050608;28;20025;-68
2022/12/24 01:19:58;;;;;;;7.70;5.55;;;;;;;2.41;71.29;94666.06;5047709;28;20100;-68
2022/12/24 01:22:23;;;;;;;35.63;20.58;;;;;;;2.29;71.57;94687.25;5047645;28;20510;-69
2022/12/24 01:24:49;;;;;;;44.30;28.85;;;;;;;1.90;72.17;94685.84;5042416;28;20034;-69
2022/12/24 01:27:14;;;;;;;39.50;23.77;;;;;;;1.90;72.65;94688.41;5039593;28;20041;-69
2022/12/24 01:29:40;;;;;;;47.67;28.70;;;;;;;1.45;72.47;94670.13;5043039;28;20037;-69
2022/12/24 01:32:05;;;;;;;37.80;24.05;;;;;;;1.49;73.55;94686.16;5028392;28;20033;-68
2022/12/24 01:34:31;;;;;;;32.63;20.63;;;;;;;1.62;73.28;94683.84;5045203;28;20140;-68
2022/12/24 01:36:56;;;;;;;34.15;20.65;;;;;;;1.49;73.09;94686.16;5043951;28;20037;-69
2022/12/24 01:39:22;;;;;;;21.92;13.35;;;;;;;1.18;74.81;94663.81;5043143;28;20025;-69
2022/12/24 01:44:32;;;;;;;18.85;11.73;;;;;;;1.21;73.90;94672.16;5046532;28;20077;-69
2022/12/24 01:47:24;;;;;;;19.10;11.77;;;;;;;1.24;73.37;94692.47;5014451;28;20040;-69
2022/12/24 01:50:00;;;;;;;17.77;11.68;;;;;;;1.15;72.91;94690.38;5031990;28;20086;-68
2022/12/24 01:52:29;;;;;;;26.35;19.65;;;;;;;1.13;74.02;94694.72;5042137;28;20033;-69
2022/12/24 01:55:05;;;;;;;22.00;15.77;;;;;;;1.16;74.48;94689.47;5040055;28;20102;-68
2022/12/24 01:57:34;;;;;;;15.57;10.65;;;;;;;1.16;73.36;94691.19;5047641;28;20083;-68
2022/12/24 02:00:03;;;;;;;16.15;11.32;;;;;;;1.08;73.94;94676.19;5042624;28;20066;-68
2022/12/24 02:02:29;;;;;;;17.20;10.73;;;;;;;0.97;73.52;94674.16;5029535;28;20491;-69
2022/12/24 02:05:17;;;;;;;12.32;7.70;;;;;;;1.07;73.62;94690.72;5030536;28;20044;-68
2022/12/24 02:07:43;;;;;;;11.68;7.32;;;;;;;1.12;73.50;94682.84;5046140;28;20447;-69
2022/12/24 02:10:10;;;;;;;8.48;5.20;;;;;;;1.01;74.11;94677.41;5040504;28;20041;-69
2022/12/24 02:12:35;;;;;;;11.80;6.80;;;;;;;0.94;74.17;94653.00;5047502;28;20120;-68
2022/12/24 02:15:00;;;;;;;13.65;7.82;;;;;;;1.07;73.72;94669.44;5030236;28;20036;-69
2022/12/24 02:17:30;;;;;;;9.52;5.72;;;;;;;0.99;74.08;94658.75;5046805;28;20070;-68
2022/12/24 02:20:08;;;;;;;9.80;5.57;;;;;;;1.03;73.46;94673.03;5047360;28;20042;-69
2022/12/24 02:22:36;;;;;;;9.85;5.38;;;;;;;0.97;73.89;94673.31;5047578;28;20040;-68
2022/12/24 02:25:22;;;;;;;8.20;4.97;;;;;;;0.88;73.95;94675.41;5044954;28;20114;-69
2022/12/24 02:28:03;;;;;;;7.10;4.43;;;;;;;0.81;74.14;94679.19;5045873;28;20028;-69
2022/12/24 02:30:41;;;;;;;28.55;18.40;;;;;;;0.58;75.50;94669.19;5030304;28;20671;-69
2022/12/24 02:33:26;;;;;;;16.80;11.00;;;;;;;0.57;76.75;94675.19;5028403;28;20358;-69
2022/12/24 02:35:57;;;;;;;7.75;4.90;;;;;;;0.70;78.15;94671.19;5041469;28;20083;-69
2022/12/24 02:38:31;;;;;;;7.78;4.63;;;;;;;0.80;79.34;94661.34;5029005;28;20036;-69
2022/12/24 02:41:02;;;;;;;8.48;4.95;;;;;;;1.00;80.10;94674.00;5044742;28;20483;-68
2022/12/24 02:43:34;;;;;;;25.33;15.75;;;;;;;1.04;79.25;94677.25;5011082;28;20484;-70
2022/12/24 02:46:02;;;;;;;31.63;18.17;;;;;;;0.87;78.81;94663.53;5030499;28;20043;-69
2022/12/24 02:48:28;;;;;;;24.20;15.85;;;;;;;0.99;78.98;94674.09;5034168;28;20380;-69
2022/12/24 02:51:00;;;;;;;21.73;14.27;;;;;;;1.07;77.61;94666.88;5050711;28;20108;-69
2022/12/24 02:53:25;;;;;;;18.05;11.60;;;;;;;1.06;77.97;94666.06;5050521;28;20029;-69
2022/12/24 02:56:26;;;;;;;15.60;10.23;;;;;;;1.16;76.66;94668.16;5041740;28;20667;-68
2022/12/24 02:59:06;;;;;;;14.60;8.23;;;;;;;1.06;76.21;94655.00;5041505;28;20042;-69
2022/12/24 03:01:43;;;;;;;14.13;9.35;;;;;;;1.13;76.21;94656.34;5029043;28;20036;-69
2022/12/24 03:04:18;;;;;;;13.63;9.48;;;;;;;0.75;76.14;94628.31;5044236;28;20037;-69
2022/12/24 03:07:00;;;;;;;12.07;8.18;;;;;;;0.94;76.36;94658.94;5044353;28;20048;-68
2022/12/24 03:09:51;;;;;;;13.43;7.13;;;;;;;0.76;77.29;94653.00;5045372;28;20127;-69
2022/12/24 03:12:20;;;;;;;13.40;8.52;;;;;;;0.71;77.76;94651.56;5043589;28;20055;-69
2022/12/24 03:14:45;;;;;;;12.90;7.72;;;;;;;0.81;77.17;94656.16;5029051;28;20036;-69
2022/12/24 03:17:11;;;;;;;9.63;6.00;;;;;;;0.82;77.30;94665.47;5013094;28;20040;-69
2022/12/24 03:19:36;;;;;;;10.35;6.90;;;;;;;0.74;76.92;94675.25;5029990;28;20037;-68
2022/12/24 03:22:03;;;;;;;13.02;8.32;;;;;;;0.76;76.69;94665.78;5025791;28;20040;-68
2022/12/24 03:24:29;;;;;;;17.40;12.30;;;;;;;0.83;76.43;94662.00;5046554;28;20041;-69
2022/12/24 03:26:54;;;;;;;17.08;11.73;;;;;;;0.89;76.01;94663.44;5028135;28;20503;-69
2022/12/24 03:29:20;;;;;;;12.98;8.73;;;;;;;0.81;75.60;94666.41;5028252;28;20512;-69
2022/12/24 03:31:50;;;;;;;13.00;7.68;;;;;;;0.81;75.51;94676.63;5027792;28;20043;-69
2022/12/24 03:34:15;;;;;;;11.55;7.30;;;;;;;0.69;75.56;94654.16;5045818;28;20171;-68
2022/12/24 03:36:41;;;;;;;8.60;4.93;;;;;;;0.75;75.43;94653.88;5028285;28;20120;-69
2022/12/24 03:39:06;;;;;;;9.70;5.15;;;;;;;0.71;75.52;94644.69;5042342;28;20048;-69
2022/12/24 03:41:32;;;;;;;8.55;5.13;;;;;;;0.78;74.67;94663.97;5044343;28;20040;-69
2022/12/24 03:43:57;;;;;;;7.05;4.78;;;;;;;0.53;75.23;94659.19;5046443;28;20094;-68
2022/12/24 03:46:23;;;;;;;7.22;4.53;;;;;;;0.58;75.39;94661.50;5042332;28;20162;-68
2022/12/24 03:48:48;;;;;;;8.13;4.40;;;;;;;0.56;74.86;94666.72;5028317;28;20086;-69
2022/12/24 03:51:19;;;;;;;7.35;4.43;;;;;;;0.56;74.29;94671.00;5030979;28;20033;-69
2022/12/24 03:53:44;;;;;;;6.63;4.22;;;;;;;0.52;74.25;94666.91;5013671;28;20075;-69
2022/12/24 03:56:09;;;;;;;7.57;5.03;;;;;;;0.43;73.96;94663.88;5013263;28;20038;-69
2022/12/24 03:58:35;;;;;;;7.93;4.68;;;;;;;0.38;74.04;94653.03;5027768;28;20053;-69
2022/12/24 04:01:00;;;;;;;9.60;5.25;;;;;;;0.43;74.81;94674.09;5027571;28;20037;-69
2022/12/24 04:03:26;;;;;;;9.38;5.05;;;;;;;0.43;74.30;94674.09;5028117;28;20040;-69
2022/12/24 04:06:05;;;;;;;7.47;4.80;;;;;;;0.32;74.16;94672.94;5030789;28;20033;-69
2022/12/24 04:08:31;;;;;;;7.45;4.40;;;;;;;0.24;74.25;94678.38;5029684;28;20029;-69
2022/12/24 04:10:56;;;;;;;6.30;4.53;;;;;;;0.24;74.61;94672.44;5013202;28;20033;-69
2022/12/24 04:13:22;;;;;;;7.50;4.30;;;;;;;0.26;74.50;94686.00;5025071;28;20032;-69
2022/12/24 04:15:58;;;;;;;8.30;4.45;;;;;;;0.20;75.27;94681.97;5049814;28;20033;-69
2022/12/24 04:18:23;;;;;;;6.78;4.20;;;;;;;0.24;75.04;94688.59;5049426;28;20111;-69
2022/12/24 04:20:49;;;;;;;7.43;4.85;;;;;;;0.24;74.50;94687.78;5046381;28;20033;-69
2022/12/24 04:23:14;;;;;;;7.75;4.55;;;;;;;0.04;75.07;94673.34;5049923;28;20029;-69
2022/12/24 04:25:40;;;;;;;8.40;4.70;;;;;;;0.14;74.71;94682.22;5049376;28;20025;-69
2022/12/24 04:28:05;;;;;;;7.05;4.78;;;;;;;0.08;75.22;94693.53;5042813;28;20038;-69
2022/12/24 04:30:30;;;;;;;8.45;4.78;;;;;;;0.07;75.09;94702.13;5030634;28;20026;-69
2022/12/24 04:32:56;;;;;;;10.88;6.90;;;;;;;0.02;75.47;94690.44;5030435;28;20045;-69
2022/12/24 04:35:21;;;;;;;8.43;6.03;;;;;;;0.12;76.40;94705.31;5029187;28;20033;-69
2022/12/24 04:37:47;;;;;;;9.02;6.13;;;;;;;0.21;75.55;94698.97;5031770;28;20042;-69
2022/12/24 04:40:12;;;;;;;15.25;10.05;;;;;;;0.14;76.08;94707.78;5029346;28;20034;-69
2022/12/24 04:42:38;;;;;;;11.57;6.80;;;;;;;0.14;76.65;94700.97;5030620;28;20029;-69
2022/12/24 04:45:03;;;;;;;16.27;9.07;;;;;;;0.25;76.50;94705.56;5030622;28;20026;-69
2022/12/24 04:47:29;;;;;;;36.95;15.73;;;;;;;0.20;77.19;94712.63;5035676;28;20029;-69
2022/12/24 04:49:54;;;;;;;21.20;10.68;;;;;;;0.26;77.90;94717.47;5052994;28;20087;-69
2022/12/24 04:52:20;;;;;;;11.98;7.18;;;;;;;0.09;77.74;94702.06;5054253;28;20025;-69
2022/12/24 04:54:45;;;;;;;8.85;6.13;;;;;;;0.26;76.62;94720.03;5054016;28;20033;-69
2022/12/24 04:57:11;;;;;;;9.57;5.82;;;;;;;0.38;76.37;94719.47;5053530;28;20083;-69
2022/12/24 04:59:36;;;;;;;7.97;5.50;;;;;;;0.33;76.65;94702.69;5054075;28;20036;-69
2022/12/24 05:02:02;;;;;;;7.43;4.75;;;;;;;0.33;76.36;94697.56;5052805;28;20029;-69
2022/12/24 05:04:27;;;;;;;8.65;4.90;;;;;;;0.42;76.53;94712.53;5053982;28;20040;-69
2022/12/24 05:06:53;;;;;;;6.30;4.38;;;;;;;0.34;76.85;94720.53;5036063;28;20553;-69
2022/12/24 05:09:18;;;;;;;10.73;5.32;;;;;;;0.31;77.27;94704.50;5053864;28;20487;-69
2022/12/24 05:11:43;;;;;;;6.47;4.45;;;;;;;0.27;78.70;94700.41;5053696;28;20459;-69
2022/12/24 05:14:09;;;;;;;8.88;4.68;;;;;;;0.16;79.27;94680.44;5053540;28;20526;-69
2022/12/24 05:16:34;;;;;;;7.28;4.68;;;;;;;0.38;79.49;94695.66;5035730;28;20421;-69
2022/12/24 05:19:00;;;;;;;6.75;4.72;;;;;;;0.43;80.08;94694.53;5052449;28;20036;-69
2022/12/24 05:21:25;;;;;;;7.40;5.22;;;;;;;0.60;79.98;94685.28;5019232;28;20426;-69
2022/12/24 05:26:44;;;;;;;8.65;5.22;;;;;;;0.66;80.25;94665.34;5052262;28;20625;-69
2022/12/24 05:29:11;;;;;;;7.70;4.82;;;;;;;0.75;80.64;94674.31;5033404;28;20518;-69
2022/12/24 05:31:38;;;;;;;8.93;5.20;;;;;;;0.74;79.85;94671.84;5052016;28;20017;-69
2022/12/24 05:34:04;;;;;;;9.10;5.10;;;;;;;0.83;79.97;94664.56;5052048;28;20064;-69
2022/12/24 05:36:29;;;;;;;16.83;7.22;;;;;;;0.88;79.56;94680.53;5053259;28;20064;-69
2022/12/24 05:38:55;;;;;;;18.45;7.53;;;;;;;1.01;78.98;94678.25;5052973;28;20431;-69
2022/12/24 05:41:20;;;;;;;12.88;7.10;;;;;;;0.99;79.47;94681.75;5053148;28;20414;-69
2022/12/24 05:43:46;;;;;;;14.20;6.95;;;;;;;1.01;78.44;94677.41;5033873;28;20036;-69
2022/12/24 05:46:13;;;;;;;28.35;17.05;;;;;;;1.02;77.95;94673.94;5050223;28;20025;-69
2022/12/24 05:48:39;;;;;;;26.00;15.50;;;;;;;1.12;77.09;94682.84;5035196;28;20048;-69
2022/12/24 05:51:05;;;;;;;20.42;12.52;;;;;;;1.13;77.28;94681.94;5051967;28;20290;-69
2022/12/24 05:53:31;;;;;;;10.52;6.30;;;;;;;1.08;77.00;94686.44;5036484;28;20065;-69
2022/12/24 05:56:17;;;;;;;7.72;5.57;;;;;;;1.08;76.81;94676.19;5031583;28;20521;-70
2022/12/24 05:58:43;;;;;;;12.60;7.85;;;;;;;1.05;76.81;94681.47;5027532;28;20052;-69
2022/12/24 06:01:08;;;;;;;30.75;19.65;;;;;;;0.96;77.12;94676.78;5033742;28;20037;-69
2022/12/24 06:03:34;;;;;;;24.00;15.45;;;;;;;1.10;77.22;94669.28;5033170;28;20100;-69
2022/12/24 06:06:07;;;;;;;25.73;15.70;;;;;;;1.24;75.77;94672.00;5037009;28;20562;-69
2022/12/24 06:08:32;;;;;;;25.10;15.23;;;;;;;1.23;75.90;94678.03;5051310;28;20029;-69
2022/12/24 06:10:59;;;;;;;29.13;19.98;;;;;;;1.18;76.22;94691.97;5032845;28;20040;-71
2022/12/24 06:13:25;;;;;;;36.63;24.38;;;;;;;1.30;75.49;94699.03;5031168;28;20034;-69
2022/12/24 06:15:54;;;;;;;45.17;32.63;;;;;;;1.29;74.23;94690.53;5031498;28;20048;-69
2022/12/24 06:18:19;;;;;;;52.50;36.17;;;;;;;1.24;73.43;94687.34;5031523;28;20521;-69
2022/12/24 06:20:45;;;;;;;36.88;25.48;;;;;;;1.18;74.18;94691.97;5034753;28;20045;-68
2022/12/24 06:23:10;;;;;;;36.60;26.67;;;;;;;1.19;73.23;94691.88;5033436;28;20033;-69
2022/12/24 06:25:36;;;;;;;41.75;28.73;;;;;;;1.21;73.06;94707.97;5026376;28;20030;-68
2022/12/24 06:28:01;;;;;;;46.42;29.05;;;;;;;1.10;73.35;94697.44;5044959;28;20033;-68
2022/12/24 06:30:26;;;;;;;62.90;46.13;;;;;;;1.16;72.78;94712.50;5042885;28;20033;-68
2022/12/24 06:32:52;;;;;;;46.17;34.55;;;;;;;1.13;73.38;94715.19;5039020;28;20037;-68
2022/12/24 06:35:17;;;;;;;38.70;24.88;;;;;;;0.87;72.93;94713.88;5044896;28;20045;-68
2022/12/24 06:37:43;;;;;;;30.85;21.58;;;;;;;0.63;74.11;94715.81;5041326;28;20029;-69
2022/12/24 06:40:09;;;;;;;31.60;22.35;;;;;;;0.61;74.61;94712.50;5044766;28;20533;-69
2022/12/24 06:42:34;;;;;;;32.03;22.58;;;;;;;0.68;74.38;94726.66;5041761;28;20029;-68
2022/12/24 06:44:59;;;;;;;32.28;20.80;;;;;;;0.60;74.74;94731.31;5027402;28;20044;-69
2022/12/24 06:47:25;;;;;;;29.85;21.30;;;;;;;0.61;73.69;94738.06;5048538;28;20025;-68
2022/12/24 06:49:50;;;;;;;33.55;21.50;;;;;;;0.46;73.83;94721.69;5038619;28;20578;-67
2022/12/24 06:52:16;;;;;;;31.23;21.40;;;;;;;0.50;74.46;94740.28;5047609;28;20041;-68
2022/12/24 06:54:42;;;;;;;30.10;21.30;;;;;;;0.47;74.40;94740.41;5041801;28;20042;-67
2022/12/24 06:57:07;;;;;;;31.15;20.40;;;;;;;0.48;74.25;94742.91;5046478;28;20044;-68
2022/12/24 06:59:33;;;;;;;28.70;20.48;;;;;;;0.39;74.36;94733.06;5046368;28;20025;-68
2022/12/24 07:01:58;;;;;;;27.20;20.08;;;;;;;0.38;74.14;94746.75;5042212;28;20064;-68
2022/12/24 07:04:23;;;;;;;29.60;19.63;;;;;;;0.39;74.86;94744.16;5045783;28;20033;-67
2022/12/24 07:06:49;;;;;;;30.58;20.58;;;;;;;0.44;75.19;94736.25;5047440;28;20518;-68
2022/12/24 07:09:14;;;;;;;26.13;18.20;;;;;;;0.43;75.01;94739.72;5043778;28;20056;-68
2022/12/24 07:11:40;;;;;;;27.50;18.63;;;;;;;0.44;75.10;94731.97;5040613;28;20029;-68
2022/12/24 07:14:05;;;;;;;32.40;21.60;;;;;;;0.43;75.99;94732.06;5045205;28;20033;-68
2022/12/24 07:16:30;;;;;;;36.53;25.85;;;;;;;0.52;75.83;94734.19;5047939;28;20060;-68
2022/12/24 07:18:56;;;;;;;40.13;28.67;;;;;;;0.75;75.79;94734.88;5047962;28;20545;-68
2022/12/24 07:21:21;;;;;;;47.03;34.60;;;;;;;0.84;75.31;94724.25;5026513;28;20100;-68
2022/12/24 07:23:47;;;;;;;46.53;34.28;;;;;;;0.73;76.17;94729.84;5045262;28;20037;-68
2022/12/24 07:26:12;;;;;;;47.17;33.13;;;;;;;0.91;76.15;94725.59;5047412;28;20391;-68
2022/12/24 07:28:38;;;;;;;44.05;32.03;;;;;;;0.98;76.34;94733.84;5046347;28;20115;-68
2022/12/24 07:31:03;;;;;;;68.25;40.88;;;;;;;1.11;75.67;94727.22;5038649;28;20033;-68
2022/12/24 07:33:29;;;;;;;74.47;40.95;;;;;;;1.12;75.59;94731.47;5045038;28;20129;-68
2022/12/24 07:36:01;;;;;;;55.28;33.50;;;;;;;1.23;76.29;94731.78;5048094;28;20439;-68
2022/12/24 07:38:27;;;;;;;66.70;38.78;;;;;;;1.25;76.17;94727.38;5047857;28;20049;-68
2022/12/24 07:40:52;;;;;;;59.83;37.30;;;;;;;1.31;76.51;94733.97;5044097;28;20095;-68
2022/12/24 07:43:18;;;;;;;76.18;43.40;;;;;;;1.25;76.42;94740.19;5042652;28;20514;-67
2022/12/24 07:45:43;;;;;;;63.15;39.28;;;;;;;1.39;77.05;94742.09;5048139;28;20517;-68
2022/12/24 07:48:09;;;;;;;83.13;46.55;;;;;;;1.58;76.31;94742.03;5040098;28;20022;-68
2022/12/24 07:50:34;;;;;;;91.30;49.75;;;;;;;1.62;76.40;94748.69;5046925;28;20033;-68
2022/12/24 07:52:59;;;;;;;117.45;63.58;;;;;;;1.49;76.98;94732.25;5043671;28;20037;-68
2022/12/24 07:55:25;;;;;;;114.68;66.03;;;;;;;1.74;76.61;94745.50;5042869;28;20091;-68
2022/12/24 07:57:50;;;;;;;82.63;52.28;;;;;;;1.87;77.01;94742.34;5046667;28;20064;-68
2022/12/24 08:00:16;;;;;;;98.63;54.83;;;;;;;2.08;76.92;94740.44;5045304;28;20032;-68
2022/12/24 08:02:43;;;;;;;92.15;54.13;;;;;;;2.26;76.66;94742.06;5038854;28;20036;-68
2022/12/24 08:05:11;;;;;;;87.18;52.28;;;;;;;2.41;75.92;94748.13;5040709;28;20439;-68
2022/12/24 08:07:36;;;;;;;87.30;53.67;;;;;;;2.44;76.26;94737.72;5042682;28;20411;-68
2022/12/24 08:10:02;;;;;;;109.03;59.75;;;;;;;2.72;75.86;94752.47;5046516;28;20033;-68
2022/12/24 08:12:28;;;;;;;140.95;71.90;;;;;;;2.83;75.41;94755.28;5041180;28;20491;-68
2022/12/24 08:14:53;;;;;;;177.98;89.80;;;;;;;2.75;75.53;94748.91;5039563;28;20040;-68
2022/12/24 08:17:19;;;;;;;147.77;78.97;;;;;;;2.96;75.28;94765.75;5034883;28;20034;-68
2022/12/24 08:19:44;;;;;;;116.97;64.88;;;;;;;3.17;74.98;94775.75;5038060;28;20091;-68
2022/12/24 08:22:09;;;;;;;91.22;54.40;;;;;;;3.33;74.60;94771.44;5039574;28;20029;-69
2022/12/24 08:24:36;;;;;;;51.17;31.83;;;;;;;3.52;73.79;94768.69;5040481;28;20101;-68
2022/12/24 08:27:01;;;;;;;48.15;31.17;;;;;;;3.54;73.83;94780.53;5041312;28;20031;-68
2022/12/24 08:29:27;;;;;;;56.17;34.85;;;;;;;3.56;74.02;94776.09;5040985;28;20029;-68
2022/12/24 08:31:52;;;;;;;41.33;25.80;;;;;;;3.51;74.26;94762.72;5042263;28;20496;-68
2022/12/24 08:34:18;;;;;;;42.30;24.45;;;;;;;3.70;72.91;94767.63;5048281;28;20495;-68
2022/12/24 08:36:43;;;;;;;36.97;23.55;;;;;;;3.83;72.75;94767.78;5042214;28;20403;-69
2022/12/24 08:39:09;;;;;;;32.90;21.70;;;;;;;3.86;73.17;94762.44;5039238;28;20403;-67
2022/12/24 08:41:34;;;;;;;36.15;23.25;;;;;;;3.87;72.96;94756.38;5033989;28;20103;-67
2022/12/24 08:44:00;;;;;;;40.42;25.45;;;;;;;3.91;73.41;94757.06;5047489;28;20029;-69
2022/12/24 08:46:25;;;;;;;38.45;24.45;;;;;;;3.99;72.95;94753.13;5044671;28;20492;-67
2022/12/24 08:48:51;;;;;;;36.65;24.02;;;;;;;4.07;72.90;94757.81;5034640;28;20480;-68
2022/12/24 08:51:18;;;;;;;45.20;25.10;;;;;;;4.13;72.29;94743.78;5047456;28;20056;-68
2022/12/24 08:53:43;;;;;;;36.58;24.08;;;;;;;4.21;72.75;94739.84;5023328;28;20120;-68
2022/12/24 08:56:09;;;;;;;39.38;25.73;;;;;;;4.29;72.51;94728.25;5034578;28;20102;-67
2022/12/24 08:58:34;;;;;;;43.35;28.40;;;;;;;4.31;72.76;94723.84;5040953;28;20045;-67
2022/12/24 09:01:00;;;;;;;45.40;28.83;;;;;;;4.34;72.37;94711.63;5040491;28;20117;-68
2022/12/24 09:03:26;;;;;;;39.75;26.52;;;;;;;4.48;72.69;94736.53;5036498;28;20038;-68
2022/12/24 09:05:54;;;;;;;38.60;26.38;;;;;;;4.54;72.40;94735.34;5043487;28;20065;-71
2022/12/24 09:08:20;;;;;;;49.45;32.63;;;;;;;4.59;72.61;94735.88;5025855;28;20045;-67
2022/12/24 09:10:45;;;;;;;46.83;32.00;;;;;;;4.66;72.83;94742.31;5042555;28;20493;-68
2022/12/24 09:13:11;;;;;;;49.72;32.92;;;;;;;4.75;72.35;94744.34;5038226;28;20042;-69
2022/12/24 09:15:36;;;;;;;46.13;29.73;;;;;;;4.79;72.27;94745.81;5039437;28;20040;-68
2022/12/24 09:18:02;;;;;;;41.83;27.40;;;;;;;4.76;72.50;94742.59;5039523;28;20029;-68
2022/12/24 09:20:27;;;;;;;40.80;25.30;;;;;;;4.64;72.76;94754.44;5043893;28;20040;-68
2022/12/24 09:22:52;;;;;;;40.10;26.58;;;;;;;4.75;72.79;94754.63;5022904;28;20495;-68
2022/12/24 09:25:18;;;;;;;50.10;32.00;;;;;;;4.76;72.59;94753.69;5043141;28;20491;-68
2022/12/24 09:27:43;;;;;;;39.20;26.52;;;;;;;4.87;72.59;94741.00;5043943;28;20082;-68
2022/12/24 09:30:09;;;;;;;36.88;23.70;;;;;;;4.75;72.42;94725.50;5040369;28;20071;-68
2022/12/24 09:32:35;;;;;;;36.45;22.40;;;;;;;4.87;72.29;94738.41;5037847;28;20040;-68
2022/12/24 09:35:00;;;;;;;35.97;25.35;;;;;;;4.90;72.09;94732.25;5033967;28;20484;-68
2022/12/24 09:37:25;;;;;;;41.17;26.75;;;;;;;4.91;72.23;94732.19;5024735;28;20429;-67
2022/12/24 09:39:51;;;;;;;45.83;29.67;;;;;;;4.97;72.52;94737.88;5039368;28;20056;-68
2022/12/24 09:42:47;;;;;;;37.40;24.42;;;;;;;5.14;71.54;94735.88;5039629;28;20033;-68
2022/12/24 09:45:30;;;;;;;41.67;25.50;;;;;;;5.24;71.03;94733.59;5024554;28;20084;-68
2022/12/24 09:48:02;;;;;;;39.47;26.05;;;;;;;5.25;71.20;94713.78;5022993;28;20041;-68
2022/12/24 09:50:30;;;;;;;39.08;27.13;;;;;;;5.39;70.79;94729.19;5017708;28;20035;-68
2022/12/24 09:52:56;;;;;;;40.88;27.67;;;;;;;5.43;71.36;94728.06;5039572;28;20056;-67
2022/12/24 09:55:30;;;;;;;41.00;29.10;;;;;;;5.45;71.58;94720.25;5024862;28;20491;-67
2022/12/24 09:57:55;;;;;;;50.28;32.97;;;;;;;5.50;71.51;94734.50;5032518;28;20061;-67
2022/12/24 10:00:22;;;;;;;57.42;36.10;;;;;;;5.52;71.17;94737.81;5029472;28;20040;-69
2022/12/24 10:02:47;;;;;;;47.67;31.15;;;;;;;5.60;70.89;94729.59;5035016;28;20033;-70
2022/12/24 10:05:14;;;;;;;45.60;29.23;;;;;;;5.60;70.50;94729.59;5045333;28;20032;-69
2022/12/24 10:07:42;;;;;;;38.88;26.63;;;;;;;5.62;70.42;94726.88;5023649;28;20040;-68
2022/12/24 10:10:17;;;;;;;37.55;24.88;;;;;;;5.64;70.35;94736.19;5039778;28;20029;-68
2022/12/24 10:12:55;;;;;;;39.25;25.50;;;;;;;5.62;70.10;94721.72;5039067;28;20029;-67
2022/12/24 10:15:46;;;;;;;42.00;26.88;;;;;;;5.66;69.92;94739.50;5030957;28;20265;-68
2022/12/24 10:18:27;;;;;;;43.87;29.43;;;;;;;5.62;69.63;94727.72;5038987;28;20082;-68
2022/12/24 10:20:57;;;;;;;;;;;;;;;5.49;69.95;94721.69;5050706;28;20065;-68
2022/12/24 10:23:33;;;;;;;48.47;29.45;;;;;;;5.44;69.79;94713.44;5049065;28;19921;-68
2022/12/24 10:26:02;;;;;;;50.92;33.08;;;;;;;5.45;69.75;94717.66;5049231;28;20408;-68
2022/12/24 10:28:55;;;;;;;55.40;34.03;;;;;;;5.32;70.30;94718.47;5050891;28;20032;-68
2022/12/24 10:31:24;;;;;;;49.67;32.90;;;;;;;5.40;70.13;94711.97;5023430;28;20103;-68
2022/12/24 10:33:53;;;;;;;46.00;30.15;;;;;;;5.19;70.47;94709.03;5032511;28;20025;-68
2022/12/24 10:36:21;;;;;;;51.17;31.98;;;;;;;5.37;70.21;94723.31;5031827;28;20021;-68
2022/12/24 10:38:46;;;;;;;51.38;31.88;;;;;;;5.33;70.09;94714.94;5032671;28;20037;-68
2022/12/24 10:41:12;;;;;;;48.13;32.58;;;;;;;5.23;70.07;94685.53;5048790;28;20400;-68
2022/12/24 10:43:38;;;;;;;50.25;33.78;;;;;;;5.43;70.19;94709.19;5048839;28;20112;-68
2022/12/24 10:46:07;;;;;;;53.25;32.83;;;;;;;5.28;70.45;94693.00;5048369;28;20036;-68
2022/12/24 10:48:39;;;;;;;51.53;32.47;;;;;;;5.53;69.81;94718.00;5032370;28;20112;-69
2022/12/24 10:51:12;;;;;;;42.28;28.83;;;;;;;5.54;69.68;94719.66;5032779;28;20040;-68
2022/12/24 10:53:45;;;;;;;38.65;27.08;;;;;;;5.49;70.21;94706.22;5050732;28;20491;-68
2022/12/24 10:56:12;;;;;;;41.95;27.35;;;;;;;5.53;70.11;94694.81;5033963;28;20033;-68
2022/12/24 10:58:45;;;;;;;46.20;29.70;;;;;;;5.61;69.90;94702.88;5034117;28;20087;-68
2022/12/24 11:01:11;;;;;;;41.00;28.42;;;;;;;5.61;70.19;94697.72;5050608;28;20029;-68
2022/12/24 11:03:36;;;;;;;40.90;28.23;;;;;;;5.69;69.38;94703.22;5017529;28;20494;-68
2022/12/24 11:06:10;;;;;;;40.17;26.77;;;;;;;5.73;69.66;94714.13;5033913;28;20032;-68
2022/12/24 11:08:37;;;;;;;42.20;27.13;;;;;;;5.77;68.97;94710.44;5052106;28;20337;-68
2022/12/24 11:11:10;;;;;;;41.55;26.92;;;;;;;5.67;69.25;94699.88;5034175;28;20406;-68
2022/12/24 11:13:36;;;;;;;49.53;30.83;;;;;;;5.73;69.25;94708.97;5017831;28;20388;-68
2022/12/24 11:16:16;;;;;;;41.00;27.52;;;;;;;5.70;69.41;94696.28;5051470;28;20028;-68
2022/12/24 11:18:47;;;;;;;45.67;28.70;;;;;;;5.74;69.12;94705.47;5050121;28;20088;-68
2022/12/24 11:21:21;;;;;;;46.47;30.60;;;;;;;5.91;68.46;94715.50;5050392;28;20047;-68
2022/12/24 11:24:12;;;;;;;38.38;26.02;;;;;;;5.94;68.26;94709.38;5050424;28;20071;-68
2022/12/24 11:26:38;;;;;;;39.47;27.10;;;;;;;5.87;68.56;94710.66;5050960;28;20037;-68
2022/12/24 11:29:05;;;;;;;35.13;24.95;;;;;;;5.80;68.97;94699.94;5033504;28;20029;-68
2022/12/24 11:31:32;;;;;;;42.38;28.30;;;;;;;5.77;69.40;94693.22;5050197;28;20112;-68
2022/12/24 11:33:58;;;;;;;40.28;27.58;;;;;;;5.74;69.72;94679.69;5049898;28;20108;-68
2022/12/24 11:36:23;;;;;;;39.97;27.17;;;;;;;5.87;69.88;94697.75;5033296;28;20028;-68
2022/12/24 11:38:56;;;;;;;39.28;27.40;;;;;;;5.84;69.24;94673.00;5051028;28;20495;-68
2022/12/24 11:41:21;;;;;;;38.58;27.25;;;;;;;5.95;69.12;94709.25;5033348;28;20025;-68